SNOW

Not for real navigation. The accuracy of this data is not assured See disclaimer for more information



ICAO NAME COUNTRY WIND Kt GUST Kt VIS m TEMP/DEW C BARO METAR
KSXT SEXTON SUMMIT OR United States 11 0 400 1/1 29.55 KSXT 190956Z AUTO 18011KT 0.25SM FG VV002 01/01 A2955 RMK AO2 SNB36E48 SLP026 P0001 T00060006
KCWA Mosinee / Central Wisconsin WI United States 6 0 400 0/0 29.92 KCWA 191015Z AUTO 21006KT 0.25SM SN OVC003 00/00 A2992 RMK AO2
KY63 Elbow Lake Municipal, Pride of MN United States 7 0 400 -2/-2 29.69 KY63 191015Z AUTO 10007KT 0.25SM -SN OVC002 M02/M02 A2969 RMK AO2 T10161016
KGPZ Grand Rapids, Grand Rapids/Ita MN United States 11 0 400 -1/-2 29.72 KGPZ 191019Z AUTO 18011KT 0.25SM -SN FZFG OVC001 M01/M02 A2972 RMK AO2 SNB12 P0000 FZRANO
KD39 5 0 400 -2/-2 29.73 KD39 191012Z AUTO 15005KT 0.25SM -SN OVC002 M02/M02 A2973 RMK AO2 T10221022

Show more